Time;durP1;ratioP1;P1;durP2;ratioP2;P2;SDS_P1;SDS_P2;PMS_P1;PMS_P2;Temp;Humidity;BMP_temperature;BMP_pressure;BME280_temperature;BME280_humidity;BME280_pressure;Samples;Min_cycle;Max_cycle;Signal;HPM_P1;HPM_P2
2022/09/10 00:12:44;;;;;;;;;;;;;;;;;;;;;
2022/09/10 00:49:26;;;;;;;;;;;;;;;;;;;;;
2022/09/10 01:23:40;;;;;;;;;;;;;;;;;;;;;
2022/09/10 01:46:17;;;;;;;;;;;;;;;;;;;;;
2022/09/10 01:49:45;;;;;;;7.73;2.20;;;16.50;99.90;;;;;;4853008;29;20512;-87
2022/09/10 18:51:53;;;;;;;16.27;14.67;;;17.60;1.00;;;;;;6091237;23;20449;-87
2022/09/10 18:58:13;;;;;;;18.63;15.10;;;17.50;1.00;;;;;;5996146;23;20436;-87
2022/09/10 19:04:39;;;;;;;19.13;15.47;;;17.50;1.00;;;;;;5994053;23;20475;-86
2022/09/10 21:43:13;;;;;;;24.30;16.50;;;17.30;1.00;;;;;;6282414;22;20611;-82
2022/09/10 21:45:59;;;;;;;20.67;16.10;;;17.30;1.00;;;;;;6312915;22;20404;-84
2022/09/10 21:48:39;;;;;;;18.40;15.90;;;17.30;1.00;;;;;;6285197;22;20816;-84
2022/09/10 21:51:10;;;;;;;19.30;15.97;;;17.20;1.00;;;;;;6312606;22;20421;-84
2022/09/10 21:54:21;;;;;;;;;;;;;;;;;;;;;
2022/09/10 21:56:54;;;;;;;21.43;16.70;;;17.10;1.00;;;;;;6304328;22;20435;-84
2022/09/10 21:59:29;;;;;;;20.57;15.37;;;17.10;1.00;;;;;;6287682;22;20832;-84
2022/09/10 22:02:35;;;;;;;20.00;16.83;;;17.10;1.00;;;;;;6315298;22;20378;-84
2022/09/10 22:05:03;;;;;;;22.33;17.17;;;17.10;1.00;;;;;;6284273;22;20421;-84
2022/09/10 22:07:46;;;;;;;22.37;16.87;;;17.10;1.00;;;;;;6284378;22;20761;-83
2022/09/10 22:10:25;;;;;;;23.43;16.47;;;17.10;1.00;;;;;;6286787;22;20425;-83
2022/09/10 22:13:11;;;;;;;24.80;16.67;;;17.10;1.00;;;;;;6288591;22;20419;-83
2022/09/10 22:15:48;;;;;;;;;;;;;;;;;;;;;
2022/09/10 22:18:49;;;;;;;22.40;17.37;;;17.00;1.00;;;;;;6314837;22;20411;-83
2022/09/10 22:21:25;;;;;;;20.13;16.80;;;17.00;1.00;;;;;;6314967;22;20363;-83
2022/09/10 22:24:33;;;;;;;;;;;;;;;;;;;;;
2022/09/10 22:27:09;;;;;;;24.97;18.20;;;16.90;1.00;;;;;;6298267;22;20402;-83
2022/09/10 22:32:51;;;;;;;24.57;18.50;;;16.80;1.00;;;;;;6309472;22;20382;-83
2022/09/10 22:35:32;;;;;;;;;;;;;;;;;;;;;
2022/09/10 22:38:08;;;;;;;25.90;18.30;;;16.80;1.00;;;;;;6315862;22;20406;-84
2022/09/10 22:40:40;;;;;;;30.53;20.30;;;16.80;1.00;;;;;;6316454;22;20366;-83
2022/09/10 22:43:27;;;;;;;27.63;20.00;;;16.70;1.00;;;;;;6289030;22;20408;-83
2022/09/10 22:46:47;;;;;;;27.23;21.27;;;16.70;1.00;;;;;;6314836;22;20406;-83
2022/09/10 22:49:27;;;;;;;31.30;21.63;;;16.70;1.00;;;;;;6272667;22;20382;-83
2022/09/10 22:52:13;;;;;;;32.17;21.07;;;16.60;1.00;;;;;;6287150;22;20430;-84
2022/09/10 23:01:46;;;;;;;26.40;19.87;;;16.50;1.00;;;;;;6176756;23;20416;-84
2022/09/10 23:05:12;;;;;;;27.83;21.03;;;16.50;1.00;;;;;;6125636;23;20907;-84
2022/09/10 23:07:54;;;;;;;24.00;19.73;;;16.40;1.00;;;;;;6103298;23;20420;-84
2022/09/10 23:11:21;;;;;;;28.67;21.10;;;16.40;1.00;;;;;;6105486;23;20423;-84
2022/09/10 23:14:05;;;;;;;30.63;22.20;;;16.40;1.00;;;;;;6105615;23;20496;-83
2022/09/10 23:23:47;;;;;;;26.70;21.20;;;16.40;1.00;;;;;;6292577;22;20744;-84
2022/09/10 23:26:22;;;;;;;26.27;21.93;;;16.30;1.00;;;;;;6277085;22;20386;-85
2022/09/10 23:29:09;;;;;;;29.30;22.13;;;16.40;1.00;;;;;;6287166;22;20460;-85
2022/09/10 23:35:09;;;;;;;25.90;21.40;;;16.30;1.00;;;;;;6313585;22;20381;-85
2022/09/10 23:37:58;;;;;;;29.13;21.50;;;16.30;1.00;;;;;;6284846;22;20700;-85
2022/09/10 23:41:16;;;;;;;27.50;21.00;;;16.20;1.00;;;;;;6285326;22;20373;-84
2022/09/10 23:44:11;;;;;;;32.30;22.30;;;16.20;1.00;;;;;;6275324;22;20853;-85
2022/09/10 23:46:52;;;;;;;26.23;21.67;;;16.20;1.00;;;;;;6200202;22;20410;-85
2022/09/10 23:49:26;;;;;;;28.70;21.07;;;16.10;1.00;;;;;;6313726;22;20460;-84
2022/09/10 23:52:19;;;;;;;30.07;23.07;;;16.00;1.00;;;;;;6287375;22;20433;-84
2022/09/10 23:55:35;;;;;;;30.97;24.10;;;16.00;1.00;;;;;;6313011;22;20904;-84
2022/09/10 23:58:28;;;;;;;34.33;24.27;;;16.00;1.00;;;;;;6162294;22;20386;-84
